sensor_id;sensor_type;location;lat;lon;timestamp;temperature;humidity
10175;DHT22;18221;38.704;0.152;2022-10-23T00:11:34;20.40;99.90
10175;DHT22;18221;38.704;0.152;2022-10-23T00:14:05;20.40;99.90
10175;DHT22;18221;38.704;0.152;2022-10-23T00:16:33;20.40;99.90
10175;DHT22;18221;38.704;0.152;2022-10-23T00:19:02;20.40;99.90
10175;DHT22;18221;38.704;0.152;2022-10-23T00:21:30;20.40;99.90
10175;DHT22;18221;38.704;0.152;2022-10-23T00:23:58;20.40;99.90
10175;DHT22;18221;38.704;0.152;2022-10-23T00:26:26;20.30;99.90
10175;DHT22;18221;38.704;0.152;2022-10-23T00:28:56;20.30;99.90
10175;DHT22;18221;38.704;0.152;2022-10-23T00:31:25;20.30;99.90
10175;DHT22;18221;38.704;0.152;2022-10-23T00:33:53;20.30;99.90
10175;DHT22;18221;38.704;0.152;2022-10-23T00:36:21;20.40;99.90
10175;DHT22;18221;38.704;0.152;2022-10-23T00:38:49;20.30;99.90
10175;DHT22;18221;38.704;0.152;2022-10-23T00:41:20;20.40;99.90
10175;DHT22;18221;38.704;0.152;2022-10-23T00:44:00;20.40;99.90
10175;DHT22;18221;38.704;0.152;2022-10-23T00:46:32;20.40;99.90
10175;DHT22;18221;38.704;0.152;2022-10-23T00:49:02;20.40;99.90
10175;DHT22;18221;38.704;0.152;2022-10-23T00:51:34;20.40;99.90
10175;DHT22;18221;38.704;0.152;2022-10-23T00:54:05;20.50;99.90
10175;DHT22;18221;38.704;0.152;2022-10-23T00:56:35;20.50;99.90
10175;DHT22;18221;38.704;0.152;2022-10-23T00:59:09;20.50;99.90
10175;DHT22;18221;38.704;0.152;2022-10-23T01:01:37;20.50;99.90
10175;DHT22;18221;38.704;0.152;2022-10-23T01:04:06;20.40;99.90
10175;DHT22;18221;38.704;0.152;2022-10-23T01:06:36;20.50;99.90
10175;DHT22;18221;38.704;0.152;2022-10-23T01:09:14;20.50;99.90
10175;DHT22;18221;38.704;0.152;2022-10-23T01:11:54;20.50;99.90
10175;DHT22;18221;38.704;0.152;2022-10-23T01:14:31;20.50;99.90
10175;DHT22;18221;38.704;0.152;2022-10-23T01:17:13;20.60;99.90
10175;DHT22;18221;38.704;0.152;2022-10-23T01:19:54;20.60;99.90
10175;DHT22;18221;38.704;0.152;2022-10-23T01:22:40;20.50;99.90
10175;DHT22;18221;38.704;0.152;2022-10-23T01:25:30;20.50;99.90
10175;DHT22;18221;38.704;0.152;2022-10-23T01:28:20;20.50;99.90
10175;DHT22;18221;38.704;0.152;2022-10-23T01:30:53;20.50;99.90
10175;DHT22;18221;38.704;0.152;2022-10-23T01:33:28;20.50;99.90
10175;DHT22;18221;38.704;0.152;2022-10-23T01:36:01;20.50;99.90
10175;DHT22;18221;38.704;0.152;2022-10-23T01:38:37;20.60;99.90
10175;DHT22;18221;38.704;0.152;2022-10-23T01:41:13;20.60;99.90
10175;DHT22;18221;38.704;0.152;2022-10-23T01:43:51;20.60;99.90
10175;DHT22;18221;38.704;0.152;2022-10-23T01:46:23;20.60;99.90
10175;DHT22;18221;38.704;0.152;2022-10-23T01:48:54;20.60;99.90
10175;DHT22;18221;38.704;0.152;2022-10-23T01:51:28;20.60;99.90
10175;DHT22;18221;38.704;0.152;2022-10-23T01:54:00;20.60;99.90
10175;DHT22;18221;38.704;0.152;2022-10-23T01:56:32;20.60;99.90
10175;DHT22;18221;38.704;0.152;2022-10-23T01:59:08;20.50;99.90
10175;DHT22;18221;38.704;0.152;2022-10-23T02:01:42;20.60;99.90
10175;DHT22;18221;38.704;0.152;2022-10-23T02:04:14;20.50;99.90
10175;DHT22;18221;38.704;0.152;2022-10-23T02:06:46;20.50;99.90
10175;DHT22;18221;38.704;0.152;2022-10-23T02:09:14;20.50;99.90
10175;DHT22;18221;38.704;0.152;2022-10-23T02:11:51;20.50;99.90
10175;DHT22;18221;38.704;0.152;2022-10-23T02:14:36;20.50;99.90
10175;DHT22;18221;38.704;0.152;2022-10-23T02:17:14;20.50;99.90
10175;DHT22;18221;38.704;0.152;2022-10-23T02:19:52;20.50;99.90
10175;DHT22;18221;38.704;0.152;2022-10-23T02:22:26;20.50;99.90
10175;DHT22;18221;38.704;0.152;2022-10-23T02:24:59;20.50;99.90
10175;DHT22;18221;38.704;0.152;2022-10-23T02:27:36;20.40;99.90
10175;DHT22;18221;38.704;0.152;2022-10-23T02:30:10;20.40;99.90
10175;DHT22;18221;38.704;0.152;2022-10-23T02:32:44;20.40;99.90
10175;DHT22;18221;38.704;0.152;2022-10-23T02:35:14;20.30;99.90
10175;DHT22;18221;38.704;0.152;2022-10-23T02:37:42;20.40;99.90
10175;DHT22;18221;38.704;0.152;2022-10-23T02:40:18;20.30;99.90
10175;DHT22;18221;38.704;0.152;2022-10-23T02:42:52;20.30;99.90
10175;DHT22;18221;38.704;0.152;2022-10-23T02:45:29;20.30;99.90
10175;DHT22;18221;38.704;0.152;2022-10-23T02:48:06;20.30;99.90
10175;DHT22;18221;38.704;0.152;2022-10-23T02:50:43;20.30;99.90
10175;DHT22;18221;38.704;0.152;2022-10-23T02:53:22;20.30;99.90
10175;DHT22;18221;38.704;0.152;2022-10-23T02:56:02;20.30;99.90
10175;DHT22;18221;38.704;0.152;2022-10-23T02:58:41;20.30;99.90
10175;DHT22;18221;38.704;0.152;2022-10-23T03:01:18;20.20;99.90
10175;DHT22;18221;38.704;0.152;2022-10-23T03:03:51;20.20;99.90
10175;DHT22;18221;38.704;0.152;2022-10-23T03:06:23;20.20;99.90
10175;DHT22;18221;38.704;0.152;2022-10-23T03:08:52;20.20;99.90
10175;DHT22;18221;38.704;0.152;2022-10-23T03:11:24;20.20;99.90
10175;DHT22;18221;38.704;0.152;2022-10-23T03:13:52;20.20;99.90
10175;DHT22;18221;38.704;0.152;2022-10-23T03:16:22;20.20;99.90
10175;DHT22;18221;38.704;0.152;2022-10-23T03:18:50;20.20;99.90
10175;DHT22;18221;38.704;0.152;2022-10-23T03:21:18;20.20;99.90
10175;DHT22;18221;38.704;0.152;2022-10-23T03:23:46;20.30;99.90
10175;DHT22;18221;38.704;0.152;2022-10-23T03:26:14;20.30;99.90
10175;DHT22;18221;38.704;0.152;2022-10-23T03:28:42;20.30;99.90
10175;DHT22;18221;38.704;0.152;2022-10-23T03:31:10;20.40;99.90
10175;DHT22;18221;38.704;0.152;2022-10-23T03:33:39;20.30;99.90
10175;DHT22;18221;38.704;0.152;2022-10-23T03:36:08;20.30;99.90
10175;DHT22;18221;38.704;0.152;2022-10-23T03:38:36;20.30;99.90
10175;DHT22;18221;38.704;0.152;2022-10-23T03:41:04;20.30;99.90
10175;DHT22;18221;38.704;0.152;2022-10-23T03:43:32;20.30;99.90
10175;DHT22;18221;38.704;0.152;2022-10-23T03:46:00;20.30;99.90
10175;DHT22;18221;38.704;0.152;2022-10-23T03:48:33;20.30;99.90
10175;DHT22;18221;38.704;0.152;2022-10-23T03:51:05;20.30;99.90
10175;DHT22;18221;38.704;0.152;2022-10-23T03:53:33;20.30;99.90
10175;DHT22;18221;38.704;0.152;2022-10-23T03:56:01;20.30;99.90
10175;DHT22;18221;38.704;0.152;2022-10-23T03:58:29;20.30;99.90
10175;DHT22;18221;38.704;0.152;2022-10-23T04:00:57;20.30;99.90
10175;DHT22;18221;38.704;0.152;2022-10-23T04:03:25;20.30;99.90
10175;DHT22;18221;38.704;0.152;2022-10-23T04:05:53;20.30;99.90
10175;DHT22;18221;38.704;0.152;2022-10-23T04:08:22;20.30;99.90
10175;DHT22;18221;38.704;0.152;2022-10-23T04:10:50;20.30;99.90
10175;DHT22;18221;38.704;0.152;2022-10-23T04:13:18;19.80;99.90
10175;DHT22;18221;38.704;0.152;2022-10-23T04:15:50;20.30;99.90
10175;DHT22;18221;38.704;0.152;2022-10-23T04:18:19;20.40;99.90
10175;DHT22;18221;38.704;0.152;2022-10-23T04:20:48;20.30;99.90
10175;DHT22;18221;38.704;0.152;2022-10-23T04:23:16;20.40;99.90
10175;DHT22;18221;38.704;0.152;2022-10-23T04:25:46;20.40;99.90
10175;DHT22;18221;38.704;0.152;2022-10-23T04:28:14;20.40;99.90
10175;DHT22;18221;38.704;0.152;2022-10-23T04:30:42;20.40;99.90
10175;DHT22;18221;38.704;0.152;2022-10-23T04:33:09;20.30;99.90
10175;DHT22;18221;38.704;0.152;2022-10-23T04:35:37;20.30;99.90
10175;DHT22;18221;38.704;0.152;2022-10-23T04:38:05;20.30;99.90
10175;DHT22;18221;38.704;0.152;2022-10-23T04:40:33;20.20;99.90
10175;DHT22;18221;38.704;0.152;2022-10-23T04:43:02;20.20;99.90
10175;DHT22;18221;38.704;0.152;2022-10-23T04:45:30;20.20;99.90
10175;DHT22;18221;38.704;0.152;2022-10-23T04:47:58;20.20;99.90
10175;DHT22;18221;38.704;0.152;2022-10-23T04:50:26;20.20;99.90
10175;DHT22;18221;38.704;0.152;2022-10-23T04:52:55;20.10;99.90
10175;DHT22;18221;38.704;0.152;2022-10-23T04:55:24;20.20;99.90
10175;DHT22;18221;38.704;0.152;2022-10-23T04:57:52;20.20;99.90
10175;DHT22;18221;38.704;0.152;2022-10-23T05:00:21;20.20;99.90
10175;DHT22;18221;38.704;0.152;2022-10-23T05:02:49;20.20;99.90
10175;DHT22;18221;38.704;0.152;2022-10-23T05:05:18;20.20;99.90
10175;DHT22;18221;38.704;0.152;2022-10-23T05:07:45;20.20;99.90
10175;DHT22;18221;38.704;0.152;2022-10-23T05:10:13;20.20;99.90
10175;DHT22;18221;38.704;0.152;2022-10-23T05:12:41;20.10;99.90
10175;DHT22;18221;38.704;0.152;2022-10-23T05:15:09;20.10;99.90
10175;DHT22;18221;38.704;0.152;2022-10-23T05:17:41;20.00;99.90
10175;DHT22;18221;38.704;0.152;2022-10-23T05:20:16;20.00;99.90
10175;DHT22;18221;38.704;0.152;2022-10-23T05:22:47;19.90;99.90
10175;DHT22;18221;38.704;0.152;2022-10-23T05:25:19;19.90;99.90
10175;DHT22;18221;38.704;0.152;2022-10-23T05:27:46;19.90;99.90
10175;DHT22;18221;38.704;0.152;2022-10-23T05:30:14;19.80;99.90
10175;DHT22;18221;38.704;0.152;2022-10-23T05:32:44;19.80;99.90
10175;DHT22;18221;38.704;0.152;2022-10-23T05:35:15;19.70;99.90
10175;DHT22;18221;38.704;0.152;2022-10-23T05:37:49;19.70;99.90
10175;DHT22;18221;38.704;0.152;2022-10-23T05:40:18;19.70;99.90
10175;DHT22;18221;38.704;0.152;2022-10-23T05:42:46;19.70;99.90
10175;DHT22;18221;38.704;0.152;2022-10-23T05:45:15;19.70;99.90
10175;DHT22;18221;38.704;0.152;2022-10-23T05:47:45;19.60;99.90
10175;DHT22;18221;38.704;0.152;2022-10-23T05:50:14;19.70;99.90
10175;DHT22;18221;38.704;0.152;2022-10-23T05:52:45;19.70;99.90
10175;DHT22;18221;38.704;0.152;2022-10-23T05:55:14;19.70;99.90
10175;DHT22;18221;38.704;0.152;2022-10-23T05:57:42;19.80;99.90
10175;DHT22;18221;38.704;0.152;2022-10-23T06:00:11;19.80;99.90
10175;DHT22;18221;38.704;0.152;2022-10-23T06:02:39;19.80;99.90
10175;DHT22;18221;38.704;0.152;2022-10-23T06:05:09;19.80;99.90
10175;DHT22;18221;38.704;0.152;2022-10-23T06:07:37;19.80;99.90
10175;DHT22;18221;38.704;0.152;2022-10-23T06:10:05;19.80;99.90
10175;DHT22;18221;38.704;0.152;2022-10-23T06:12:33;19.80;99.90
10175;DHT22;18221;38.704;0.152;2022-10-23T06:15:02;19.80;99.90
10175;DHT22;18221;38.704;0.152;2022-10-23T06:17:30;19.80;99.90
10175;DHT22;18221;38.704;0.152;2022-10-23T06:19:58;19.70;99.90
10175;DHT22;18221;38.704;0.152;2022-10-23T06:22:29;19.70;99.90
10175;DHT22;18221;38.704;0.152;2022-10-23T06:24:57;19.70;99.90
10175;DHT22;18221;38.704;0.152;2022-10-23T06:27:25;19.70;99.90
10175;DHT22;18221;38.704;0.152;2022-10-23T06:29:52;19.60;99.90
10175;DHT22;18221;38.704;0.152;2022-10-23T06:32:20;19.50;99.90
10175;DHT22;18221;38.704;0.152;2022-10-23T06:34:48;19.60;99.90
10175;DHT22;18221;38.704;0.152;2022-10-23T06:37:16;19.70;99.90
10175;DHT22;18221;38.704;0.152;2022-10-23T06:39:45;19.70;99.90
10175;DHT22;18221;38.704;0.152;2022-10-23T06:42:13;19.70;99.90
10175;DHT22;18221;38.704;0.152;2022-10-23T06:44:41;19.70;99.90
10175;DHT22;18221;38.704;0.152;2022-10-23T06:47:09;19.70;99.90
10175;DHT22;18221;38.704;0.152;2022-10-23T06:49:38;19.70;99.90
10175;DHT22;18221;38.704;0.152;2022-10-23T06:52:06;19.70;99.90
10175;DHT22;18221;38.704;0.152;2022-10-23T06:54:34;19.70;99.90
10175;DHT22;18221;38.704;0.152;2022-10-23T06:57:04;19.70;99.90
10175;DHT22;18221;38.704;0.152;2022-10-23T06:59:31;19.80;99.90
10175;DHT22;18221;38.704;0.152;2022-10-23T07:01:59;19.90;99.90
10175;DHT22;18221;38.704;0.152;2022-10-23T07:04:27;19.90;99.90
10175;DHT22;18221;38.704;0.152;2022-10-23T07:06:55;19.90;99.90
10175;DHT22;18221;38.704;0.152;2022-10-23T07:09:23;20.00;99.90
10175;DHT22;18221;38.704;0.152;2022-10-23T07:11:51;20.00;99.90
10175;DHT22;18221;38.704;0.152;2022-10-23T07:14:21;20.00;99.90
10175;DHT22;18221;38.704;0.152;2022-10-23T07:16:48;20.00;99.90
10175;DHT22;18221;38.704;0.152;2022-10-23T07:19:16;20.10;99.90
10175;DHT22;18221;38.704;0.152;2022-10-23T07:21:44;20.10;99.90
10175;DHT22;18221;38.704;0.152;2022-10-23T07:24:13;20.10;99.90
10175;DHT22;18221;38.704;0.152;2022-10-23T07:26:41;20.10;99.90
10175;DHT22;18221;38.704;0.152;2022-10-23T07:29:09;20.20;99.90
10175;DHT22;18221;38.704;0.152;2022-10-23T07:31:39;20.20;99.90
10175;DHT22;18221;38.704;0.152;2022-10-23T07:34:08;20.20;99.90
10175;DHT22;18221;38.704;0.152;2022-10-23T07:36:36;20.30;99.90
10175;DHT22;18221;38.704;0.152;2022-10-23T07:39:04;20.30;99.90
10175;DHT22;18221;38.704;0.152;2022-10-23T07:41:32;20.40;99.90
10175;DHT22;18221;38.704;0.152;2022-10-23T07:44:00;20.40;99.90
10175;DHT22;18221;38.704;0.152;2022-10-23T07:46:28;20.40;99.90
10175;DHT22;18221;38.704;0.152;2022-10-23T07:48:57;20.50;99.90
10175;DHT22;18221;38.704;0.152;2022-10-23T07:51:25;20.50;99.90
10175;DHT22;18221;38.704;0.152;2022-10-23T07:53:53;20.50;99.90
10175;DHT22;18221;38.704;0.152;2022-10-23T07:56:23;20.50;99.90
10175;DHT22;18221;38.704;0.152;2022-10-23T07:58:55;20.60;99.90
10175;DHT22;18221;38.704;0.152;2022-10-23T08:01:26;20.60;99.90
10175;DHT22;18221;38.704;0.152;2022-10-23T08:03:59;20.60;99.90
10175;DHT22;18221;38.704;0.152;2022-10-23T08:06:27;20.70;99.90
10175;DHT22;18221;38.704;0.152;2022-10-23T08:08:55;20.70;99.90
10175;DHT22;18221;38.704;0.152;2022-10-23T08:11:24;20.70;99.90
10175;DHT22;18221;38.704;0.152;2022-10-23T08:13:56;20.70;99.90
10175;DHT22;18221;38.704;0.152;2022-10-23T08:16:25;20.80;99.90
10175;DHT22;18221;38.704;0.152;2022-10-23T08:18:52;20.80;99.90
10175;DHT22;18221;38.704;0.152;2022-10-23T08:21:22;20.90;99.90
10175;DHT22;18221;38.704;0.152;2022-10-23T08:23:52;20.90;99.90
10175;DHT22;18221;38.704;0.152;2022-10-23T08:26:21;21.00;99.90
10175;DHT22;18221;38.704;0.152;2022-10-23T08:28:50;21.00;99.90
10175;DHT22;18221;38.704;0.152;2022-10-23T08:31:19;21.00;99.90
10175;DHT22;18221;38.704;0.152;2022-10-23T08:33:47;21.10;99.90
10175;DHT22;18221;38.704;0.152;2022-10-23T08:36:17;21.20;99.90
10175;DHT22;18221;38.704;0.152;2022-10-23T08:38:48;21.20;99.90
10175;DHT22;18221;38.704;0.152;2022-10-23T08:41:24;21.20;99.90
10175;DHT22;18221;38.704;0.152;2022-10-23T08:44:01;21.20;99.90
10175;DHT22;18221;38.704;0.152;2022-10-23T08:46:39;21.20;99.90
10175;DHT22;18221;38.704;0.152;2022-10-23T08:49:21;21.20;99.90
10175;DHT22;18221;38.704;0.152;2022-10-23T08:51:59;21.20;99.90
10175;DHT22;18221;38.704;0.152;2022-10-23T08:54:41;21.20;99.90
10175;DHT22;18221;38.704;0.152;2022-10-23T08:57:21;21.30;99.90
10175;DHT22;18221;38.704;0.152;2022-10-23T08:59:58;21.30;99.90
10175;DHT22;18221;38.704;0.152;2022-10-23T09:02:32;21.30;99.90
10175;DHT22;18221;38.704;0.152;2022-10-23T09:05:12;21.30;99.90
10175;DHT22;18221;38.704;0.152;2022-10-23T09:07:52;21.40;99.90
10175;DHT22;18221;38.704;0.152;2022-10-23T09:10:40;21.40;99.90
10175;DHT22;18221;38.704;0.152;2022-10-23T09:13:40;21.40;99.90
10175;DHT22;18221;38.704;0.152;2022-10-23T09:16:25;21.40;99.90
10175;DHT22;18221;38.704;0.152;2022-10-23T09:19:11;21.50;99.90
10175;DHT22;18221;38.704;0.152;2022-10-23T09:21:44;21.40;99.90
10175;DHT22;18221;38.704;0.152;2022-10-23T09:24:17;21.50;99.90
10175;DHT22;18221;38.704;0.152;2022-10-23T09:26:49;21.50;99.90
10175;DHT22;18221;38.704;0.152;2022-10-23T09:29:22;21.50;99.90
10175;DHT22;18221;38.704;0.152;2022-10-23T09:31:54;21.50;99.90
10175;DHT22;18221;38.704;0.152;2022-10-23T09:34:25;21.60;99.90
10175;DHT22;18221;38.704;0.152;2022-10-23T09:36:55;21.60;99.90
10175;DHT22;18221;38.704;0.152;2022-10-23T09:39:28;21.60;99.90
10175;DHT22;18221;38.704;0.152;2022-10-23T09:42:00;21.70;99.90
10175;DHT22;18221;38.704;0.152;2022-10-23T09:44:49;21.70;99.90
10175;DHT22;18221;38.704;0.152;2022-10-23T09:47:19;21.70;99.90
10175;DHT22;18221;38.704;0.152;2022-10-23T09:49:50;21.70;99.90
10175;DHT22;18221;38.704;0.152;2022-10-23T09:52:23;21.80;99.90
10175;DHT22;18221;38.704;0.152;2022-10-23T09:54:57;21.90;99.90
10175;DHT22;18221;38.704;0.152;2022-10-23T09:57:32;21.90;99.90
10175;DHT22;18221;38.704;0.152;2022-10-23T10:00:13;21.90;99.90
10175;DHT22;18221;38.704;0.152;2022-10-23T10:02:54;21.90;99.90
10175;DHT22;18221;38.704;0.152;2022-10-23T10:05:26;22.00;99.90
10175;DHT22;18221;38.704;0.152;2022-10-23T10:07:57;22.20;99.90
10175;DHT22;18221;38.704;0.152;2022-10-23T10:10:34;22.20;99.90
10175;DHT22;18221;38.704;0.152;2022-10-23T10:13:17;22.30;99.90
10175;DHT22;18221;38.704;0.152;2022-10-23T10:16:06;22.30;99.90
10175;DHT22;18221;38.704;0.152;2022-10-23T10:18:46;22.30;99.90
10175;DHT22;18221;38.704;0.152;2022-10-23T10:21:26;22.30;99.90
10175;DHT22;18221;38.704;0.152;2022-10-23T10:24:01;22.50;99.90
10175;DHT22;18221;38.704;0.152;2022-10-23T10:26:42;22.50;99.90
10175;DHT22;18221;38.704;0.152;2022-10-23T10:29:22;22.50;99.90
10175;DHT22;18221;38.704;0.152;2022-10-23T10:32:08;22.50;99.90
10175;DHT22;18221;38.704;0.152;2022-10-23T10:34:52;22.50;99.90
10175;DHT22;18221;38.704;0.152;2022-10-23T10:37:33;22.50;99.90
10175;DHT22;18221;38.704;0.152;2022-10-23T10:40:18;22.40;99.90
10175;DHT22;18221;38.704;0.152;2022-10-23T10:43:15;22.60;99.90
10175;DHT22;18221;38.704;0.152;2022-10-23T10:45:58;22.60;99.90
10175;DHT22;18221;38.704;0.152;2022-10-23T10:48:42;22.70;99.90
10175;DHT22;18221;38.704;0.152;2022-10-23T10:51:21;22.90;99.90
10175;DHT22;18221;38.704;0.152;2022-10-23T10:54:07;22.80;99.90
10175;DHT22;18221;38.704;0.152;2022-10-23T10:56:43;22.70;99.90
10175;DHT22;18221;38.704;0.152;2022-10-23T10:59:17;22.80;99.90
10175;DHT22;18221;38.704;0.152;2022-10-23T11:01:55;22.90;99.90
10175;DHT22;18221;38.704;0.152;2022-10-23T11:04:38;23.00;99.90
10175;DHT22;18221;38.704;0.152;2022-10-23T11:07:14;23.00;99.90
10175;DHT22;18221;38.704;0.152;2022-10-23T11:09:47;23.10;99.90
10175;DHT22;18221;38.704;0.152;2022-10-23T11:12:18;23.20;99.90
10175;DHT22;18221;38.704;0.152;2022-10-23T11:14:49;23.30;99.90
10175;DHT22;18221;38.704;0.152;2022-10-23T11:17:22;23.20;99.90
10175;DHT22;18221;38.704;0.152;2022-10-23T11:19:58;23.30;99.90
10175;DHT22;18221;38.704;0.152;2022-10-23T11:22:34;23.40;99.90
10175;DHT22;18221;38.704;0.152;2022-10-23T11:25:24;23.30;99.90
10175;DHT22;18221;38.704;0.152;2022-10-23T11:28:20;23.40;99.90
10175;DHT22;18221;38.704;0.152;2022-10-23T11:31:05;23.50;99.90
10175;DHT22;18221;38.704;0.152;2022-10-23T11:34:25;23.60;99.90
10175;DHT22;18221;38.704;0.152;2022-10-23T11:37:17;23.60;99.90
10175;DHT22;18221;38.704;0.152;2022-10-23T11:40:02;23.70;99.90
10175;DHT22;18221;38.704;0.152;2022-10-23T11:42:48;23.80;99.90
10175;DHT22;18221;38.704;0.152;2022-10-23T11:45:28;23.80;99.90
10175;DHT22;18221;38.704;0.152;2022-10-23T11:48:00;23.80;99.90
10175;DHT22;18221;38.704;0.152;2022-10-23T11:50:33;23.80;99.90
10175;DHT22;18221;38.704;0.152;2022-10-23T11:53:25;23.80;99.90
10175;DHT22;18221;38.704;0.152;2022-10-23T11:56:22;23.80;99.90
10175;DHT22;18221;38.704;0.152;2022-10-23T11:58:55;23.80;99.90
10175;DHT22;18221;38.704;0.152;2022-10-23T12:01:34;23.70;99.90
10175;DHT22;18221;38.704;0.152;2022-10-23T12:04:16;23.70;99.90
10175;DHT22;18221;38.704;0.152;2022-10-23T12:06:51;23.70;99.90
10175;DHT22;18221;38.704;0.152;2022-10-23T12:09:26;23.70;99.90
10175;DHT22;18221;38.704;0.152;2022-10-23T12:12:11;23.60;99.90
10175;DHT22;18221;38.704;0.152;2022-10-23T12:14:46;23.70;99.90
10175;DHT22;18221;38.704;0.152;2022-10-23T12:17:32;23.80;99.90
10175;DHT22;18221;38.704;0.152;2022-10-23T12:20:20;23.80;99.90
10175;DHT22;18221;38.704;0.152;2022-10-23T12:23:18;23.80;99.90
10175;DHT22;18221;38.704;0.152;2022-10-23T12:26:10;23.80;99.90
10175;DHT22;18221;38.704;0.152;2022-10-23T12:29:22;23.70;99.90
10175;DHT22;18221;38.704;0.152;2022-10-23T12:32:04;23.70;99.90
10175;DHT22;18221;38.704;0.152;2022-10-23T12:34:51;23.90;99.90
10175;DHT22;18221;38.704;0.152;2022-10-23T12:37:49;24.10;99.90
10175;DHT22;18221;38.704;0.152;2022-10-23T12:40:30;24.10;99.90
10175;DHT22;18221;38.704;0.152;2022-10-23T12:42:59;24.10;99.90
10175;DHT22;18221;38.704;0.152;2022-10-23T12:45:29;23.90;99.90
10175;DHT22;18221;38.704;0.152;2022-10-23T12:48:03;23.70;99.90
10175;DHT22;18221;38.704;0.152;2022-10-23T12:50:32;23.60;99.90
10175;DHT22;18221;38.704;0.152;2022-10-23T12:53:02;23.70;99.90
10175;DHT22;18221;38.704;0.152;2022-10-23T12:55:47;23.80;99.90
10175;DHT22;18221;38.704;0.152;2022-10-23T12:58:19;23.90;99.90
10175;DHT22;18221;38.704;0.152;2022-10-23T13:00:53;24.00;99.90
10175;DHT22;18221;38.704;0.152;2022-10-23T13:03:23;24.10;99.90
10175;DHT22;18221;38.704;0.152;2022-10-23T13:05:54;24.20;99.90
10175;DHT22;18221;38.704;0.152;2022-10-23T13:08:31;24.20;99.90
10175;DHT22;18221;38.704;0.152;2022-10-23T13:11:05;24.10;99.90
10175;DHT22;18221;38.704;0.152;2022-10-23T13:13:35;24.00;99.90
10175;DHT22;18221;38.704;0.152;2022-10-23T13:16:13;24.00;99.90
10175;DHT22;18221;38.704;0.152;2022-10-23T13:18:42;24.00;99.90
10175;DHT22;18221;38.704;0.152;2022-10-23T13:21:16;24.10;99.90
10175;DHT22;18221;38.704;0.152;2022-10-23T13:23:47;23.90;99.90
10175;DHT22;18221;38.704;0.152;2022-10-23T13:26:30;23.90;99.90
10175;DHT22;18221;38.704;0.152;2022-10-23T13:29:00;24.00;99.90
10175;DHT22;18221;38.704;0.152;2022-10-23T13:31:31;24.00;99.90
10175;DHT22;18221;38.704;0.152;2022-10-23T13:34:11;23.90;99.90
10175;DHT22;18221;38.704;0.152;2022-10-23T13:37:00;23.90;99.90
10175;DHT22;18221;38.704;0.152;2022-10-23T13:39:31;23.80;99.90
10175;DHT22;18221;38.704;0.152;2022-10-23T13:42:11;23.80;99.90
10175;DHT22;18221;38.704;0.152;2022-10-23T13:44:40;23.80;99.90
10175;DHT22;18221;38.704;0.152;2022-10-23T13:47:11;23.70;99.90
10175;DHT22;18221;38.704;0.152;2022-10-23T13:49:40;23.70;99.90
10175;DHT22;18221;38.704;0.152;2022-10-23T13:52:10;23.70;99.90
10175;DHT22;18221;38.704;0.152;2022-10-23T13:54:42;23.60;99.90
10175;DHT22;18221;38.704;0.152;2022-10-23T13:57:13;23.70;99.90
10175;DHT22;18221;38.704;0.152;2022-10-23T13:59:42;23.60;99.90
10175;DHT22;18221;38.704;0.152;2022-10-23T14:02:17;23.60;99.90
10175;DHT22;18221;38.704;0.152;2022-10-23T14:04:46;23.60;99.90
10175;DHT22;18221;38.704;0.152;2022-10-23T14:07:15;23.50;99.90
10175;DHT22;18221;38.704;0.152;2022-10-23T14:09:43;23.50;99.90
10175;DHT22;18221;38.704;0.152;2022-10-23T14:12:13;23.40;99.90
10175;DHT22;18221;38.704;0.152;2022-10-23T14:14:40;23.30;99.90
10175;DHT22;18221;38.704;0.152;2022-10-23T14:17:08;23.20;99.90
10175;DHT22;18221;38.704;0.152;2022-10-23T14:19:36;23.30;99.90
10175;DHT22;18221;38.704;0.152;2022-10-23T14:22:04;23.20;99.90
10175;DHT22;18221;38.704;0.152;2022-10-23T14:24:32;23.30;99.90
10175;DHT22;18221;38.704;0.152;2022-10-23T14:27:00;23.20;99.90
10175;DHT22;18221;38.704;0.152;2022-10-23T14:29:30;23.20;99.90
10175;DHT22;18221;38.704;0.152;2022-10-23T14:31:58;23.20;99.90
10175;DHT22;18221;38.704;0.152;2022-10-23T14:34:26;23.10;99.90
10175;DHT22;18221;38.704;0.152;2022-10-23T14:36:54;23.10;99.90
10175;DHT22;18221;38.704;0.152;2022-10-23T14:39:22;22.70;99.90
10175;DHT22;18221;38.704;0.152;2022-10-23T14:41:49;23.00;99.90
10175;DHT22;18221;38.704;0.152;2022-10-23T14:44:17;23.00;99.90
10175;DHT22;18221;38.704;0.152;2022-10-23T14:46:47;22.90;99.90
10175;DHT22;18221;38.704;0.152;2022-10-23T14:49:15;22.90;99.90
10175;DHT22;18221;38.704;0.152;2022-10-23T14:51:43;22.90;99.90
10175;DHT22;18221;38.704;0.152;2022-10-23T14:54:11;22.90;99.90
10175;DHT22;18221;38.704;0.152;2022-10-23T14:56:38;22.80;99.90
10175;DHT22;18221;38.704;0.152;2022-10-23T14:59:07;22.90;99.90
10175;DHT22;18221;38.704;0.152;2022-10-23T15:01:38;22.80;99.90
10175;DHT22;18221;38.704;0.152;2022-10-23T15:04:09;22.70;99.90
10175;DHT22;18221;38.704;0.152;2022-10-23T15:06:39;22.80;99.90
10175;DHT22;18221;38.704;0.152;2022-10-23T15:09:07;22.80;99.90
10175;DHT22;18221;38.704;0.152;2022-10-23T15:11:35;22.90;99.90
10175;DHT22;18221;38.704;0.152;2022-10-23T15:14:03;22.90;99.90
10175;DHT22;18221;38.704;0.152;2022-10-23T15:16:31;22.80;99.90
10175;DHT22;18221;38.704;0.152;2022-10-23T15:19:06;22.80;99.90
10175;DHT22;18221;38.704;0.152;2022-10-23T15:21:35;22.70;99.90
10175;DHT22;18221;38.704;0.152;2022-10-23T15:24:04;22.60;99.90
10175;DHT22;18221;38.704;0.152;2022-10-23T15:26:32;22.50;99.90
10175;DHT22;18221;38.704;0.152;2022-10-23T15:29:01;22.60;99.90
10175;DHT22;18221;38.704;0.152;2022-10-23T15:31:43;22.50;99.90
10175;DHT22;18221;38.704;0.152;2022-10-23T15:34:19;22.40;99.90
10175;DHT22;18221;38.704;0.152;2022-10-23T15:36:49;22.40;99.90
10175;DHT22;18221;38.704;0.152;2022-10-23T15:39:18;22.30;99.90
10175;DHT22;18221;38.704;0.152;2022-10-23T15:41:49;22.40;99.90
10175;DHT22;18221;38.704;0.152;2022-10-23T15:44:20;22.30;99.90
10175;DHT22;18221;38.704;0.152;2022-10-23T15:46:50;22.40;99.90
10175;DHT22;18221;38.704;0.152;2022-10-23T15:49:20;22.30;99.90
10175;DHT22;18221;38.704;0.152;2022-10-23T15:51:47;22.20;99.90
10175;DHT22;18221;38.704;0.152;2022-10-23T15:54:16;22.20;99.90
10175;DHT22;18221;38.704;0.152;2022-10-23T15:56:46;22.20;99.90
10175;DHT22;18221;38.704;0.152;2022-10-23T15:59:16;22.20;99.90
10175;DHT22;18221;38.704;0.152;2022-10-23T16:01:46;22.10;99.90
10175;DHT22;18221;38.704;0.152;2022-10-23T16:04:14;22.10;99.90
10175;DHT22;18221;38.704;0.152;2022-10-23T16:06:44;22.00;99.90
10175;DHT22;18221;38.704;0.152;2022-10-23T16:09:12;22.00;99.90
10175;DHT22;18221;38.704;0.152;2022-10-23T16:11:42;22.00;99.90
10175;DHT22;18221;38.704;0.152;2022-10-23T16:14:13;22.00;99.90
10175;DHT22;18221;38.704;0.152;2022-10-23T16:16:42;22.00;99.90